createdAt,value
2022-10-24T00:00:46.449Z,18.00
2022-10-24T00:03:32.189Z,18.00
2022-10-24T00:06:18.749Z,18.00
2022-10-24T00:09:04.610Z,18.00
2022-10-24T00:11:50.199Z,18.00
2022-10-24T00:14:36.092Z,17.90
2022-10-24T00:17:21.751Z,18.00
2022-10-24T00:20:08.362Z,18.10
2022-10-24T00:22:55.412Z,18.20
2022-10-24T00:25:41.079Z,18.20
2022-10-24T00:28:26.589Z,18.30
2022-10-24T00:31:15.294Z,18.40
2022-10-24T00:34:01.235Z,18.30
2022-10-24T00:36:47.185Z,18.30
2022-10-24T00:39:32.623Z,18.50
2022-10-24T00:42:18.373Z,18.40
2022-10-24T00:45:45.074Z,18.20
2022-10-24T00:48:50.213Z,18.30
2022-10-24T00:51:37.090Z,18.30
2022-10-24T00:54:22.708Z,18.10
2022-10-24T00:57:15.609Z,18.00
2022-10-24T01:00:07.566Z,18.10
2022-10-24T01:02:53.411Z,18.10
2022-10-24T01:06:21.931Z,18.00
2022-10-24T01:09:19.703Z,18.10
2022-10-24T01:12:18.688Z,18.10
2022-10-24T01:15:04.327Z,18.10
2022-10-24T01:18:01.353Z,18.00
2022-10-24T01:21:11.197Z,17.80
2022-10-24T01:23:59.896Z,17.80
2022-10-24T01:27:16.142Z,17.90
2022-10-24T01:30:09.458Z,18.00
2022-10-24T01:33:08.511Z,18.10
2022-10-24T01:35:56.677Z,18.10
2022-10-24T01:38:57.213Z,18.00
2022-10-24T01:41:44.584Z,17.90
2022-10-24T01:44:41.283Z,17.90
2022-10-24T01:47:32.003Z,17.80
2022-10-24T01:50:20.342Z,17.70
2022-10-24T01:53:09.020Z,17.50
2022-10-24T01:55:55.061Z,17.50
2022-10-24T01:58:40.759Z,17.70
2022-10-24T02:01:26.553Z,17.60
2022-10-24T02:04:13.428Z,17.60
2022-10-24T02:07:04.141Z,17.70
2022-10-24T02:09:58.177Z,17.60
2022-10-24T02:12:54.082Z,17.50
2022-10-24T02:15:45.444Z,17.50
2022-10-24T02:18:33.236Z,17.60
2022-10-24T02:21:40.122Z,17.60
2022-10-24T02:24:33.373Z,17.70
2022-10-24T02:27:28.979Z,17.80
2022-10-24T02:30:25.484Z,17.80
2022-10-24T02:33:12.613Z,17.90
2022-10-24T02:35:59.427Z,17.70
2022-10-24T02:38:46.609Z,17.80
2022-10-24T02:41:35.976Z,17.60
2022-10-24T02:44:23.687Z,17.70
2022-10-24T02:47:12.996Z,17.60
2022-10-24T02:49:58.623Z,17.70
2022-10-24T02:52:44.818Z,17.90
2022-10-24T02:55:30.852Z,17.90
2022-10-24T02:58:16.865Z,17.90
2022-10-24T03:01:02.756Z,17.70
2022-10-24T03:03:48.436Z,17.70
2022-10-24T03:06:34.205Z,17.90
2022-10-24T03:09:19.913Z,17.80
2022-10-24T03:12:05.727Z,17.80
2022-10-24T03:14:51.805Z,17.70
2022-10-24T03:17:37.328Z,17.50
2022-10-24T03:20:24.520Z,17.50
2022-10-24T03:23:09.850Z,17.50
2022-10-24T03:25:59.047Z,17.60
2022-10-24T03:28:44.641Z,17.60
2022-10-24T03:31:32.180Z,17.80
2022-10-24T03:34:17.796Z,17.80
2022-10-24T03:37:03.478Z,17.60
2022-10-24T03:39:49.300Z,17.50
2022-10-24T03:42:35.051Z,17.50
2022-10-24T03:45:20.609Z,17.60
2022-10-24T03:48:06.770Z,17.40
2022-10-24T03:50:52.477Z,17.60
2022-10-24T03:53:38.711Z,17.60
2022-10-24T03:56:24.278Z,17.50
2022-10-24T03:59:10.393Z,17.60
2022-10-24T04:01:55.839Z,17.30
2022-10-24T04:04:42.268Z,17.30
2022-10-24T04:07:27.906Z,17.20
2022-10-24T04:10:13.392Z,17.30
2022-10-24T04:12:59.094Z,17.30
2022-10-24T04:15:44.464Z,17.30
2022-10-24T04:18:29.968Z,17.30
2022-10-24T04:21:19.414Z,17.20
2022-10-24T04:24:07.666Z,17.30
2022-10-24T04:26:53.117Z,17.30
2022-10-24T04:29:38.683Z,17.30
2022-10-24T04:32:24.207Z,17.40
2022-10-24T04:35:09.816Z,17.30
2022-10-24T04:37:56.175Z,17.30
2022-10-24T04:40:45.097Z,17.20
2022-10-24T04:43:30.871Z,16.20
2022-10-24T04:46:19.789Z,17.20
2022-10-24T04:49:05.797Z,17.20
2022-10-24T04:51:51.178Z,17.30
2022-10-24T04:54:36.816Z,17.30
2022-10-24T04:57:22.283Z,17.30
2022-10-24T05:00:08.288Z,17.20
2022-10-24T05:02:56.730Z,17.20
2022-10-24T05:05:44.793Z,17.20
2022-10-24T05:08:30.308Z,17.10
2022-10-24T05:11:15.899Z,17.10
2022-10-24T05:14:01.293Z,17.10
2022-10-24T05:16:48.768Z,17.10
2022-10-24T05:19:34.629Z,17.20
2022-10-24T05:22:20.901Z,16.90
2022-10-24T05:25:07.253Z,17.10
2022-10-24T05:27:53.043Z,17.10
2022-10-24T05:30:38.470Z,17.30
2022-10-24T05:33:24.371Z,17.20
2022-10-24T05:36:10.195Z,17.20
2022-10-24T05:38:56.295Z,17.30
2022-10-24T05:41:44.812Z,17.20
2022-10-24T05:44:33.450Z,17.10
2022-10-24T05:47:19.157Z,17.10
2022-10-24T05:50:06.131Z,17.10
2022-10-24T05:52:51.549Z,17.10
2022-10-24T05:55:37.091Z,17.00
2022-10-24T05:58:22.513Z,17.00
2022-10-24T06:01:08.087Z,17.10
2022-10-24T06:03:53.606Z,17.30
2022-10-24T06:06:42.809Z,17.20
2022-10-24T06:09:28.526Z,17.10
2022-10-24T06:12:14.870Z,17.00
2022-10-24T06:15:00.874Z,16.90
2022-10-24T06:17:46.360Z,17.00
2022-10-24T06:20:31.921Z,17.00
2022-10-24T06:23:17.455Z,17.10
2022-10-24T06:26:07.859Z,17.00
2022-10-24T06:28:54.925Z,16.90
2022-10-24T06:31:40.457Z,17.00
2022-10-24T06:34:26.199Z,16.80
2022-10-24T06:37:11.757Z,16.80
2022-10-24T06:39:57.236Z,16.80
2022-10-24T06:42:42.935Z,16.80
2022-10-24T06:45:28.493Z,16.90
2022-10-24T06:48:14.259Z,16.90
2022-10-24T06:51:00.370Z,16.90
2022-10-24T06:53:45.949Z,16.90
2022-10-24T06:56:32.121Z,17.60
2022-10-24T06:59:18.509Z,16.80
2022-10-24T07:02:06.006Z,16.90
2022-10-24T07:04:52.563Z,16.90
2022-10-24T07:07:38.415Z,16.80
2022-10-24T07:10:24.089Z,16.90
2022-10-24T07:13:09.867Z,16.90
2022-10-24T07:15:55.521Z,16.70
2022-10-24T07:18:41.668Z,17.00
2022-10-24T07:21:29.935Z,17.10
2022-10-24T07:24:15.657Z,17.10
2022-10-24T07:27:01.349Z,17.20
2022-10-24T07:29:47.191Z,17.20
2022-10-24T07:32:33.946Z,17.10
2022-10-24T07:35:20.096Z,17.00
2022-10-24T07:38:05.449Z,17.10
2022-10-24T07:40:51.282Z,17.00
2022-10-24T07:43:36.906Z,17.10
2022-10-24T07:46:23.192Z,17.20
2022-10-24T07:49:10.099Z,17.30
2022-10-24T07:51:55.474Z,17.30
2022-10-24T07:54:40.891Z,17.30
2022-10-24T07:57:27.385Z,17.60
2022-10-24T08:00:13.633Z,17.30
2022-10-24T08:03:00.055Z,17.40
2022-10-24T08:05:46.326Z,17.60
2022-10-24T08:08:37.169Z,17.60
2022-10-24T08:11:26.299Z,17.60
2022-10-24T08:14:17.066Z,17.80
2022-10-24T08:17:02.450Z,17.80
2022-10-24T08:19:48.003Z,17.80
2022-10-24T08:22:34.171Z,18.00
2022-10-24T08:25:20.193Z,18.00
2022-10-24T08:28:08.272Z,17.80
2022-10-24T08:30:58.236Z,17.60
2022-10-24T08:33:44.384Z,17.70
2022-10-24T08:36:32.766Z,17.60
2022-10-24T08:39:19.468Z,17.60
2022-10-24T08:42:10.600Z,17.60
2022-10-24T08:44:56.093Z,17.60
2022-10-24T08:47:57.118Z,17.50
2022-10-24T08:50:47.628Z,17.70
2022-10-24T08:53:33.899Z,17.80
2022-10-24T08:56:33.681Z,17.60
2022-10-24T08:59:19.698Z,17.60
2022-10-24T09:02:13.581Z,17.70
2022-10-24T09:05:04.465Z,17.70
2022-10-24T09:07:55.347Z,17.90
2022-10-24T09:10:50.149Z,17.70
2022-10-24T09:13:37.789Z,17.80
2022-10-24T09:16:25.242Z,18.00
2022-10-24T09:19:18.220Z,17.90
2022-10-24T09:22:04.137Z,17.80
2022-10-24T09:24:56.246Z,18.10
2022-10-24T09:27:42.968Z,18.10
2022-10-24T09:30:31.660Z,18.20
2022-10-24T09:33:33.684Z,18.70
2022-10-24T09:36:21.709Z,18.80
2022-10-24T09:39:42.844Z,19.00
2022-10-24T09:42:28.661Z,19.10
2022-10-24T09:45:18.975Z,19.40
2022-10-24T09:48:32.535Z,18.90
2022-10-24T09:51:22.321Z,18.90
2022-10-24T09:54:24.735Z,18.90
2022-10-24T09:57:17.776Z,19.00
2022-10-24T10:00:04.911Z,18.90
2022-10-24T10:03:01.796Z,19.00
2022-10-24T10:05:54.095Z,18.80
2022-10-24T10:08:39.809Z,18.90
2022-10-24T10:11:35.037Z,19.10
2022-10-24T10:14:29.324Z,18.90
2022-10-24T10:17:25.424Z,19.30
2022-10-24T10:20:29.194Z,19.50
2022-10-24T10:23:33.662Z,19.70
2022-10-24T10:26:28.750Z,19.80
2022-10-24T10:29:17.542Z,19.00
2022-10-24T10:32:28.390Z,20.40
2022-10-24T10:35:22.585Z,20.70
2022-10-24T10:38:10.997Z,21.00
2022-10-24T10:41:02.078Z,20.80
2022-10-24T10:43:53.737Z,20.80
2022-10-24T10:46:58.388Z,21.00
2022-10-24T10:49:48.397Z,21.20
2022-10-24T10:52:47.760Z,21.10
2022-10-24T10:56:03.247Z,21.20
2022-10-24T10:58:54.940Z,20.90
2022-10-24T11:01:43.226Z,21.00
2022-10-24T11:04:51.644Z,20.90
2022-10-24T11:08:06.752Z,20.70
2022-10-24T11:10:59.604Z,20.60
2022-10-24T11:13:54.652Z,20.40
2022-10-24T11:16:48.972Z,20.10
2022-10-24T11:19:55.939Z,20.10
2022-10-24T11:22:55.163Z,20.20
2022-10-24T11:25:52.256Z,20.30
2022-10-24T11:29:08.663Z,20.30
2022-10-24T11:35:17.948Z,20.30
2022-10-24T11:38:12.403Z,20.60
2022-10-24T11:41:26.580Z,21.10
2022-10-24T11:44:27.037Z,21.20
2022-10-24T11:47:25.191Z,21.00
2022-10-24T11:50:28.570Z,20.90
2022-10-24T11:53:13.894Z,20.90
2022-10-24T11:56:31.535Z,20.80
2022-10-24T11:59:24.081Z,20.80
2022-10-24T12:02:40.105Z,20.80
2022-10-24T12:05:56.702Z,21.30
2022-10-24T12:08:57.961Z,21.70
2022-10-24T12:12:01.872Z,22.10
2022-10-24T12:15:19.162Z,22.60
2022-10-24T12:18:20.267Z,23.90
2022-10-24T12:21:15.838Z,24.70
2022-10-24T12:24:02.026Z,25.00
2022-10-24T12:26:57.235Z,25.20
2022-10-24T12:29:43.521Z,25.30
2022-10-24T12:32:46.171Z,25.60
2022-10-24T12:35:40.970Z,26.00
2022-10-24T12:38:29.521Z,26.20
2022-10-24T12:41:33.348Z,26.20
2022-10-24T12:44:34.360Z,26.00
2022-10-24T12:47:31.598Z,26.20
2022-10-24T12:50:23.286Z,26.20
2022-10-24T12:53:32.690Z,26.40
2022-10-24T12:59:46.937Z,26.00
2022-10-24T13:02:32.820Z,26.20
2022-10-24T13:05:38.539Z,26.10
2022-10-24T13:08:36.006Z,25.80
2022-10-24T13:11:54.247Z,25.80
2022-10-24T13:14:45.861Z,25.90
2022-10-24T13:17:59.829Z,26.10
2022-10-24T13:20:49.683Z,26.10
2022-10-24T13:23:36.100Z,26.20
2022-10-24T13:26:31.022Z,26.20
2022-10-24T13:29:28.954Z,26.20
2022-10-24T13:32:18.529Z,26.20
2022-10-24T13:35:06.419Z,26.20
2022-10-24T13:37:59.138Z,26.10
2022-10-24T13:40:46.511Z,25.90
2022-10-24T13:43:32.553Z,26.00
2022-10-24T13:46:42.123Z,26.00
2022-10-24T13:49:33.525Z,25.90
2022-10-24T13:52:22.009Z,25.90
2022-10-24T13:58:36.680Z,26.00
2022-10-24T14:01:28.449Z,25.80
2022-10-24T14:04:13.828Z,25.70
2022-10-24T14:07:08.504Z,25.60
2022-10-24T14:10:09.485Z,25.70
2022-10-24T14:12:57.297Z,25.80
2022-10-24T14:15:51.930Z,25.90
2022-10-24T14:18:41.348Z,25.00
2022-10-24T14:21:27.236Z,25.90
2022-10-24T14:24:19.181Z,25.90
2022-10-24T14:27:06.907Z,25.90
2022-10-24T14:30:04.809Z,25.90
2022-10-24T14:33:19.211Z,25.80
2022-10-24T14:36:05.335Z,25.80
2022-10-24T14:38:56.262Z,25.70
2022-10-24T14:41:42.245Z,25.60
2022-10-24T14:44:28.995Z,25.60
2022-10-24T14:47:48.477Z,25.60
2022-10-24T14:50:44.826Z,25.70
2022-10-24T14:53:32.081Z,25.50
2022-10-24T14:56:34.746Z,25.50
2022-10-24T14:59:35.249Z,25.50
2022-10-24T15:02:42.089Z,25.60
2022-10-24T15:05:32.694Z,25.30
2022-10-24T15:08:23.881Z,25.30
2022-10-24T15:11:21.656Z,25.30
2022-10-24T15:14:30.356Z,25.40
2022-10-24T15:17:32.565Z,25.30
2022-10-24T15:20:22.386Z,25.60
2022-10-24T15:23:24.515Z,25.50
2022-10-24T15:26:34.168Z,25.30
2022-10-24T15:29:23.624Z,25.40
2022-10-24T15:32:11.119Z,25.40
2022-10-24T15:34:56.815Z,25.40
2022-10-24T15:37:54.151Z,25.40
2022-10-24T15:40:42.618Z,25.30
2022-10-24T15:43:29.115Z,25.30
2022-10-24T15:46:14.881Z,25.20
2022-10-24T15:49:00.301Z,25.30
2022-10-24T15:51:50.175Z,25.20
2022-10-24T15:54:36.442Z,25.10
2022-10-24T15:57:21.883Z,24.70
2022-10-24T16:00:09.271Z,24.70
2022-10-24T16:03:00.762Z,24.90
2022-10-24T16:05:58.126Z,24.80
2022-10-24T16:08:43.967Z,24.80
2022-10-24T16:11:30.033Z,24.40
2022-10-24T16:14:21.388Z,24.20
2022-10-24T16:17:06.799Z,24.20
2022-10-24T16:19:52.417Z,24.40
2022-10-24T16:22:39.686Z,24.40
2022-10-24T16:25:29.056Z,24.20
2022-10-24T16:28:15.015Z,23.70
2022-10-24T16:31:01.067Z,24.00
2022-10-24T16:33:46.798Z,24.00
2022-10-24T16:36:32.766Z,23.70
2022-10-24T16:39:18.572Z,23.50
2022-10-24T16:42:05.340Z,23.80
2022-10-24T16:44:52.094Z,24.00
2022-10-24T16:47:37.658Z,24.00
2022-10-24T16:50:27.234Z,24.10
2022-10-24T16:53:14.590Z,24.00
2022-10-24T16:56:00.410Z,23.30
2022-10-24T16:58:45.893Z,23.30
2022-10-24T17:01:31.585Z,23.10
2022-10-24T17:04:17.303Z,22.60
2022-10-24T17:07:04.363Z,22.80
2022-10-24T17:09:50.264Z,22.60
2022-10-24T17:12:36.153Z,22.70
2022-10-24T17:15:22.716Z,22.90
2022-10-24T17:18:09.058Z,22.90
2022-10-24T17:21:00.309Z,22.90
2022-10-24T17:23:46.712Z,22.90
2022-10-24T17:26:32.550Z,23.20
2022-10-24T17:29:25.433Z,23.40
2022-10-24T17:32:14.495Z,23.50
2022-10-24T17:35:00.733Z,23.60
2022-10-24T17:38:15.334Z,24.50
2022-10-24T17:41:10.051Z,23.70
2022-10-24T17:43:55.891Z,23.80
2022-10-24T17:46:41.393Z,23.80
2022-10-24T17:49:26.798Z,23.80
2022-10-24T17:52:19.016Z,23.80
2022-10-24T17:55:04.851Z,23.70
2022-10-24T17:57:50.827Z,23.80
2022-10-24T18:00:37.764Z,25.10
2022-10-24T18:03:23.465Z,23.90
2022-10-24T18:06:09.409Z,23.80
2022-10-24T18:08:55.867Z,23.80
2022-10-24T18:11:43.301Z,24.00
2022-10-24T18:14:28.840Z,24.10
2022-10-24T18:17:14.730Z,23.60
2022-10-24T18:20:00.243Z,23.70
2022-10-24T18:22:46.000Z,23.30
2022-10-24T18:25:31.672Z,23.30
2022-10-24T18:28:17.182Z,23.20
2022-10-24T18:31:10.884Z,23.00
2022-10-24T18:34:03.652Z,23.30
2022-10-24T18:36:53.609Z,23.20
2022-10-24T18:39:39.132Z,23.40
2022-10-24T18:42:43.725Z,23.30
2022-10-24T18:45:30.056Z,23.10
2022-10-24T18:48:16.230Z,23.40
2022-10-24T18:51:01.987Z,22.70
2022-10-24T18:53:48.100Z,22.80
2022-10-24T18:56:33.980Z,22.70
2022-10-24T18:59:21.196Z,22.80
2022-10-24T19:02:44.036Z,22.80
2022-10-24T19:05:37.057Z,22.90
2022-10-24T19:08:25.221Z,22.60
2022-10-24T19:11:14.274Z,22.50
2022-10-24T19:14:02.653Z,22.50
2022-10-24T19:16:50.484Z,22.80
2022-10-24T19:19:36.281Z,23.00
2022-10-24T19:22:21.754Z,23.30
2022-10-24T19:25:07.723Z,22.80
2022-10-24T19:30:45.064Z,22.30
2022-10-24T19:33:30.716Z,22.70
2022-10-24T19:36:19.088Z,22.90
2022-10-24T19:39:06.317Z,22.80
2022-10-24T19:41:52.093Z,22.60
2022-10-24T19:44:37.666Z,22.60
2022-10-24T19:47:23.163Z,22.80
2022-10-24T19:50:09.164Z,22.40
2022-10-24T19:52:54.603Z,22.20
2022-10-24T19:55:40.772Z,21.80
2022-10-24T19:58:26.654Z,22.00
2022-10-24T20:01:15.242Z,22.30
2022-10-24T20:04:01.425Z,22.60
2022-10-24T20:06:48.012Z,22.60
2022-10-24T20:09:33.456Z,22.40
2022-10-24T20:12:19.217Z,22.10
2022-10-24T20:15:05.156Z,22.00
2022-10-24T20:17:50.998Z,22.20
2022-10-24T20:20:36.997Z,22.50
2022-10-24T20:23:23.283Z,22.80
2022-10-24T20:26:18.787Z,22.70
2022-10-24T20:29:04.965Z,22.60
2022-10-24T20:31:50.661Z,22.80
2022-10-24T20:34:36.321Z,23.10
2022-10-24T20:37:21.761Z,22.80
2022-10-24T20:40:08.160Z,22.90
2022-10-24T20:42:54.468Z,23.10
2022-10-24T20:45:40.851Z,23.20
2022-10-24T20:48:26.461Z,23.20
2022-10-24T20:51:14.650Z,23.10
2022-10-24T20:54:00.184Z,22.80
2022-10-24T20:56:45.672Z,23.00
2022-10-24T20:59:31.066Z,23.10
2022-10-24T21:02:16.967Z,23.00
2022-10-24T21:05:04.874Z,22.20
2022-10-24T21:07:51.464Z,21.80
2022-10-24T21:10:37.167Z,22.10
2022-10-24T21:13:22.797Z,22.40
2022-10-24T21:16:08.625Z,22.30
2022-10-24T21:18:54.888Z,21.90
2022-10-24T21:21:40.472Z,21.80
2022-10-24T21:24:26.338Z,21.60
2022-10-24T21:27:12.135Z,21.60
2022-10-24T21:29:57.503Z,22.10
2022-10-24T21:32:43.242Z,22.00
2022-10-24T21:35:28.629Z,22.20
2022-10-24T21:38:14.120Z,21.80
2022-10-24T21:41:08.257Z,21.80
2022-10-24T21:43:54.850Z,22.00
2022-10-24T21:46:40.597Z,21.60
2022-10-24T21:49:26.433Z,21.80
2022-10-24T21:52:12.339Z,21.90
2022-10-24T21:54:57.651Z,22.00
2022-10-24T21:57:43.218Z,22.10
2022-10-24T22:00:28.626Z,21.80
2022-10-24T22:03:14.246Z,22.40
2022-10-24T22:05:59.909Z,22.30
2022-10-24T22:08:47.800Z,22.40
2022-10-24T22:11:35.806Z,22.40
2022-10-24T22:14:21.670Z,22.20
2022-10-24T22:17:07.183Z,22.00
2022-10-24T22:19:52.928Z,21.80
2022-10-24T22:22:38.359Z,21.90
2022-10-24T22:25:23.920Z,21.80
2022-10-24T22:28:09.552Z,21.80
2022-10-24T22:30:55.490Z,22.00
2022-10-24T22:33:42.159Z,22.20
2022-10-24T22:36:36.601Z,22.40
2022-10-24T22:39:25.929Z,22.30
2022-10-24T22:42:14.751Z,22.40
2022-10-24T22:45:03.883Z,22.00
2022-10-24T22:48:05.489Z,21.60
2022-10-24T22:50:56.895Z,21.70
2022-10-24T22:53:43.677Z,21.90
2022-10-24T22:56:33.442Z,21.90
2022-10-24T22:59:19.170Z,22.00
2022-10-24T23:02:17.005Z,22.10
2022-10-24T23:05:05.380Z,22.50
2022-10-24T23:08:10.140Z,22.70
2022-10-24T23:10:56.180Z,22.70
2022-10-24T23:13:42.803Z,22.60
2022-10-24T23:16:59.552Z,22.20
2022-10-24T23:19:46.924Z,22.30
2022-10-24T23:22:33.230Z,22.10
2022-10-24T23:25:19.450Z,21.90
2022-10-24T23:28:19.157Z,22.00
2022-10-24T23:31:05.100Z,21.80
2022-10-24T23:33:51.191Z,21.60
2022-10-24T23:36:43.005Z,21.60
2022-10-24T23:39:35.649Z,21.70
2022-10-24T23:42:21.984Z,21.60
2022-10-24T23:45:13.011Z,21.30
2022-10-24T23:48:01.577Z,20.80
2022-10-24T23:51:11.781Z,21.00
2022-10-24T23:53:57.993Z,21.40
2022-10-24T23:56:44.039Z,21.60
2022-10-24T23:59:29.844Z,21.60
